Mandalena — SW5980 — position and weather

sailwx.info

Track history (hours):
 
Tides and Currents Weather Stations Pressure Air Temp Water Temp Dewpoint Dewpoint Depression Visibility Wind Speed Wind Dir Waves Ship Positions

Mandalena

Last reported at 2017-Oct-18 00:58 UTC. Time now 2017-Nov-17 17:52 UTC.
Position N 37°23' E 023°24'.
Warning: this ship's position is 30 days out of date.

Length 44 m; draft 2.5 m.

Type: Ship (hazmat cat C). MMSI: 237016600.

Date/timePositionNaut miles runAvg speedWind from/ knotsBaromVisibWave heightAir tempDewpointWater temp
2017-Oct-18 00:58N 37°23' E 023°24'510.1
2017-Oct-18 00:29N 37°25' E 023°29'18 9.3
2017-Oct-17 22:30N 37°42' E 023°36'510.1
2017-Oct-17 22:01N 37°47' E 023°37'510.1
2017-Oct-17 21:31N 37°52' E 023°39'4 8.3
2017-Oct-17 21:00N 37°56' E 023°41'0 0.0
2017-Oct-17 20:31N 37°56' E 023°41'1 2.0
2017-Oct-17 20:01N 37°55' E 023°41'3 6.4
2017-Oct-17 19:31N 37°52' E 023°42'3 5.8
2017-Oct-17 19:01N 37°50' E 023°44'3 6.5
2017-Oct-17 18:31N 37°52' E 023°42'3 6.5
2017-Oct-17 18:01N 37°55' E 023°40'1 2.4
2017-Oct-17 17:31N 37°56' E 023°41'0 0.0
2017-Oct-17 17:00N 37°56' E 023°41'0 0.0
2017-Oct-17 16:31N 37°56' E 023°41'0 0.0
2017-Oct-17 16:01N 37°56' E 023°41'0 0.0
2017-Oct-17 15:30N 37°56' E 023°41'0 0.0
2017-Oct-17 15:01N 37°56' E 023°41'0 0.0
2017-Oct-17 14:31N 37°56' E 023°41'0 0.0
2017-Oct-17 14:00N 37°56' E 023°41'0 0.0
2017-Oct-17 13:31N 37°56' E 023°41'0 0.0
2017-Oct-17 13:01N 37°56' E 023°41'3 6.1
2017-Oct-17 12:31N 37°53' E 023°40'5 9.9
2017-Oct-17 12:01N 37°49' E 023°37'5 9.7
2017-Oct-17 11:31N 37°44' E 023°36'5 9.9
2017-Oct-17 10:59N 37°39' E 023°35'17 9.0
2017-Oct-17 09:07N 37°23' E 023°26'3 0.1
2017-Oct-16 08:25N 37°21' E 023°26'3 0.3
2017-Oct-15 21:45N 37°23' E 023°23'210.2
2017-Oct-15 21:31N 37°24' E 023°26'19 9.0
2017-Oct-15 19:24N 37°41' E 023°35'410.2
2017-Oct-15 19:00N 37°45' E 023°35'510.5
2017-Oct-15 18:31N 37°50' E 023°36'611.1
2017-Oct-15 18:01N 37°55' E 023°39'1 1.3
2017-Oct-15 17:31N 37°56' E 023°39'1 2.4
2017-Oct-15 17:01N 37°55' E 023°39'612.8
2017-Oct-15 16:31N 37°49' E 023°36'612.7
2017-Oct-15 16:00N 37°42' E 023°37'612.9
2017-Oct-15 15:30N 37°36' E 023°35'18 4.2
2017-Oct-15 11:20N 37°20' E 023°26'1 0.0
2017-Oct-14 08:16N 37°20' E 023°24'3 0.2
2017-Oct-13 21:19N 37°23' E 023°23'21 9.0
2017-Oct-13 18:58N 37°41' E 023°36'510.2
2017-Oct-13 18:30N 37°46' E 023°37'510.2
2017-Oct-13 18:01N 37°51' E 023°38'510.2
2017-Oct-13 17:31N 37°56' E 023°40'1 1.8
2017-Oct-13 17:01N 37°56' E 023°41'2 4.3
2017-Oct-13 16:30N 37°55' E 023°39'612.9
2017-Oct-13 16:01N 37°51' E 023°33'612.9
2017-Oct-13 15:31N 37°47' E 023°26'2 1.0
2017-Oct-13 13:06N 37°44' E 023°25'112.6
2017-Oct-13 13:00N 37°43' E 023°25'813.0
2017-Oct-13 12:25N 37°36' E 023°25'6 4.1
2017-Oct-13 10:51N 37°30' E 023°28'18 3.8
2017-Oct-13 06:05N 37°46' E 023°37'112.8
2017-Oct-13 06:01N 37°47' E 023°37'613.0
2017-Oct-13 05:31N 37°53' E 023°39'3 6.6
2017-Oct-13 05:01N 37°56' E 023°41'0 0.0
2017-Oct-13 04:30N 37°56' E 023°41'0 0.0
2017-Oct-13 04:00N 37°56' E 023°41'0 0.0
2017-Oct-13 03:31N 37°56' E 023°41'0 0.0
2017-Oct-13 03:01N 37°56' E 023°41'0 0.0
2017-Oct-13 02:30N 37°56' E 023°41'0 0.0
2017-Oct-13 02:01N 37°56' E 023°41'0 0.0
2017-Oct-13 01:30N 37°56' E 023°41'0 0.0
2017-Oct-13 01:01N 37°56' E 023°41'0 0.0
2017-Oct-13 00:31N 37°56' E 023°41'0 0.0
2017-Oct-13 00:00N 37°56' E 023°41'0 0.0
2017-Oct-12 23:30N 37°56' E 023°41'0 0.0
2017-Oct-12 23:00N 37°56' E 023°41'0 0.0
2017-Oct-12 22:31N 37°56' E 023°41'0 0.0
2017-Oct-12 22:01N 37°56' E 023°41'0 0.0
2017-Oct-12 21:31N 37°56' E 023°41'0 0.0
2017-Oct-12 21:01N 37°56' E 023°41'0 0.0
2017-Oct-12 20:31N 37°56' E 023°41'0 0.0
2017-Oct-12 20:01N 37°56' E 023°41'0 0.0
2017-Oct-12 19:30N 37°56' E 023°41'0 0.0
2017-Oct-12 19:01N 37°56' E 023°41'0 0.0
2017-Oct-12 18:31N 37°56' E 023°41'0 0.0
2017-Oct-12 18:01N 37°56' E 023°41'0 0.0
2017-Oct-12 17:31N 37°56' E 023°41'0 0.0
2017-Oct-12 17:01N 37°56' E 023°41'2 3.7
2017-Oct-12 16:31N 37°55' E 023°39'713.1
2017-Oct-12 16:01N 37°51' E 023°33'713.1
2017-Oct-12 15:30N 37°47' E 023°26'3 1.1
2017-Oct-12 13:14N 37°44' E 023°25'312.9
2017-Oct-12 13:01N 37°42' E 023°25'812.8
2017-Oct-12 12:24N 37°34' E 023°25'4 9.5
2017-Oct-12 11:58N 37°30' E 023°27'0 0.0
2017-Oct-12 11:29N 37°30' E 023°27'16 3.1
2017-Oct-12 06:20N 37°44' E 023°36'413.2
2017-Oct-12 06:01N 37°48' E 023°37'713.3
2017-Oct-12 05:30N 37°54' E 023°40'1 0.3
2017-Oct-12 02:35N 37°55' E 023°40'110.1
2017-Oct-12 02:31N 37°55' E 023°40'510.5
2017-Oct-12 02:00N 37°50' E 023°38'611.1
2017-Oct-12 01:30N 37°44' E 023°36'  
Track history (hours):
 
Tides and Currents Weather Stations Pressure Air Temp Water Temp Dewpoint Dewpoint Depression Visibility Wind Speed Wind Dir Waves Ship Positions

Mandalena

Last reported at 2017-Oct-18 00:58 UTC. Time now 2017-Nov-17 17:52 UTC.
Position N 37°23' E 023°24'.
Warning: this ship's position is 30 days out of date.

Length 44 m; draft 2.5 m.

Type: Ship (hazmat cat C). MMSI: 237016600.

Date/timePositionNaut miles runAvg speedWind from/ knotsBaromVisibWave heightAir tempDewpointWater temp
2017-Oct-18 00:58N 37°23' E 023°24'510.1
2017-Oct-18 00:29N 37°25' E 023°29'18 9.3
2017-Oct-17 22:30N 37°42' E 023°36'510.1
2017-Oct-17 22:01N 37°47' E 023°37'510.1
2017-Oct-17 21:31N 37°52' E 023°39'4 8.3
2017-Oct-17 21:00N 37°56' E 023°41'0 0.0
2017-Oct-17 20:31N 37°56' E 023°41'1 2.0
2017-Oct-17 20:01N 37°55' E 023°41'3 6.4
2017-Oct-17 19:31N 37°52' E 023°42'3 5.8
2017-Oct-17 19:01N 37°50' E 023°44'3 6.5
2017-Oct-17 18:31N 37°52' E 023°42'3 6.5
2017-Oct-17 18:01N 37°55' E 023°40'1 2.4
2017-Oct-17 17:31N 37°56' E 023°41'0 0.0
2017-Oct-17 17:00N 37°56' E 023°41'0 0.0
2017-Oct-17 16:31N 37°56' E 023°41'0 0.0
2017-Oct-17 16:01N 37°56' E 023°41'0 0.0
2017-Oct-17 15:30N 37°56' E 023°41'0 0.0
2017-Oct-17 15:01N 37°56' E 023°41'0 0.0
2017-Oct-17 14:31N 37°56' E 023°41'0 0.0
2017-Oct-17 14:00N 37°56' E 023°41'0 0.0
2017-Oct-17 13:31N 37°56' E 023°41'0 0.0
2017-Oct-17 13:01N 37°56' E 023°41'3 6.1
2017-Oct-17 12:31N 37°53' E 023°40'5 9.9
2017-Oct-17 12:01N 37°49' E 023°37'5 9.7
2017-Oct-17 11:31N 37°44' E 023°36'5 9.9
2017-Oct-17 10:59N 37°39' E 023°35'17 9.0
2017-Oct-17 09:07N 37°23' E 023°26'3 0.1
2017-Oct-16 08:25N 37°21' E 023°26'3 0.3
2017-Oct-15 21:45N 37°23' E 023°23'210.2
2017-Oct-15 21:31N 37°24' E 023°26'19 9.0
2017-Oct-15 19:24N 37°41' E 023°35'410.2
2017-Oct-15 19:00N 37°45' E 023°35'510.5
2017-Oct-15 18:31N 37°50' E 023°36'611.1
2017-Oct-15 18:01N 37°55' E 023°39'1 1.3
2017-Oct-15 17:31N 37°56' E 023°39'1 2.4
2017-Oct-15 17:01N 37°55' E 023°39'612.8
2017-Oct-15 16:31N 37°49' E 023°36'612.7
2017-Oct-15 16:00N 37°42' E 023°37'612.9
2017-Oct-15 15:30N 37°36' E 023°35'18 4.2
2017-Oct-15 11:20N 37°20' E 023°26'1 0.0
2017-Oct-14 08:16N 37°20' E 023°24'3 0.2
2017-Oct-13 21:19N 37°23' E 023°23'21 9.0
2017-Oct-13 18:58N 37°41' E 023°36'510.2
2017-Oct-13 18:30N 37°46' E 023°37'510.2
2017-Oct-13 18:01N 37°51' E 023°38'510.2
2017-Oct-13 17:31N 37°56' E 023°40'1 1.8
2017-Oct-13 17:01N 37°56' E 023°41'2 4.3
2017-Oct-13 16:30N 37°55' E 023°39'612.9
2017-Oct-13 16:01N 37°51' E 023°33'612.9
2017-Oct-13 15:31N 37°47' E 023°26'2 1.0
2017-Oct-13 13:06N 37°44' E 023°25'112.6
2017-Oct-13 13:00N 37°43' E 023°25'813.0
2017-Oct-13 12:25N 37°36' E 023°25'6 4.1
2017-Oct-13 10:51N 37°30' E 023°28'18 3.8
2017-Oct-13 06:05N 37°46' E 023°37'112.8
2017-Oct-13 06:01N 37°47' E 023°37'613.0
2017-Oct-13 05:31N 37°53' E 023°39'3 6.6
2017-Oct-13 05:01N 37°56' E 023°41'0 0.0
2017-Oct-13 04:30N 37°56' E 023°41'0 0.0
2017-Oct-13 04:00N 37°56' E 023°41'0 0.0
2017-Oct-13 03:31N 37°56' E 023°41'0 0.0
2017-Oct-13 03:01N 37°56' E 023°41'0 0.0
2017-Oct-13 02:30N 37°56' E 023°41'0 0.0
2017-Oct-13 02:01N 37°56' E 023°41'0 0.0
2017-Oct-13 01:30N 37°56' E 023°41'0 0.0
2017-Oct-13 01:01N 37°56' E 023°41'0 0.0
2017-Oct-13 00:31N 37°56' E 023°41'0 0.0
2017-Oct-13 00:00N 37°56' E 023°41'0 0.0
2017-Oct-12 23:30N 37°56' E 023°41'0 0.0
2017-Oct-12 23:00N 37°56' E 023°41'0 0.0
2017-Oct-12 22:31N 37°56' E 023°41'0 0.0
2017-Oct-12 22:01N 37°56' E 023°41'0 0.0
2017-Oct-12 21:31N 37°56' E 023°41'0 0.0
2017-Oct-12 21:01N 37°56' E 023°41'0 0.0
2017-Oct-12 20:31N 37°56' E 023°41'0 0.0
2017-Oct-12 20:01N 37°56' E 023°41'0 0.0
2017-Oct-12 19:30N 37°56' E 023°41'0 0.0
2017-Oct-12 19:01N 37°56' E 023°41'0 0.0
2017-Oct-12 18:31N 37°56' E 023°41'0 0.0
2017-Oct-12 18:01N 37°56' E 023°41'0 0.0
2017-Oct-12 17:31N 37°56' E 023°41'0 0.0
2017-Oct-12 17:01N 37°56' E 023°41'2 3.7
2017-Oct-12 16:31N 37°55' E 023°39'713.1
2017-Oct-12 16:01N 37°51' E 023°33'713.1
2017-Oct-12 15:30N 37°47' E 023°26'3 1.1
2017-Oct-12 13:14N 37°44' E 023°25'312.9
2017-Oct-12 13:01N 37°42' E 023°25'812.8
2017-Oct-12 12:24N 37°34' E 023°25'4 9.5
2017-Oct-12 11:58N 37°30' E 023°27'0 0.0
2017-Oct-12 11:29N 37°30' E 023°27'16 3.1
2017-Oct-12 06:20N 37°44' E 023°36'413.2
2017-Oct-12 06:01N 37°48' E 023°37'713.3
2017-Oct-12 05:30N 37°54' E 023°40'1 0.3
2017-Oct-12 02:35N 37°55' E 023°40'110.1
2017-Oct-12 02:31N 37°55' E 023°40'510.5
2017-Oct-12 02:00N 37°50' E 023°38'611.1
2017-Oct-12 01:30N 37°44' E 023°36'  

Dump ship's entire track history